sensor_id;sensor_type;location;lat;lon;timestamp;P1;durP1;ratioP1;P2;durP2;ratioP2
25437;SDS011;13364;49.084;9.978;2023-01-25T00:01:05;75.32;;;27.30;;
25437;SDS011;13364;49.084;9.978;2023-01-25T00:03:32;82.55;;;27.88;;
25437;SDS011;13364;49.084;9.978;2023-01-25T00:06:00;81.13;;;28.23;;
25437;SDS011;13364;49.084;9.978;2023-01-25T00:08:27;71.38;;;26.40;;
25437;SDS011;13364;49.084;9.978;2023-01-25T00:10:54;80.63;;;26.67;;
25437;SDS011;13364;49.084;9.978;2023-01-25T00:13:23;75.22;;;26.95;;
25437;SDS011;13364;49.084;9.978;2023-01-25T00:15:51;69.90;;;27.95;;
25437;SDS011;13364;49.084;9.978;2023-01-25T00:18:18;71.18;;;26.42;;
25437;SDS011;13364;49.084;9.978;2023-01-25T00:20:45;84.13;;;26.65;;
25437;SDS011;13364;49.084;9.978;2023-01-25T00:23:12;63.85;;;25.80;;
25437;SDS011;13364;49.084;9.978;2023-01-25T00:25:39;70.13;;;26.73;;
25437;SDS011;13364;49.084;9.978;2023-01-25T00:28:06;93.20;;;31.38;;
25437;SDS011;13364;49.084;9.978;2023-01-25T00:30:33;68.57;;;25.40;;
25437;SDS011;13364;49.084;9.978;2023-01-25T00:35:42;76.15;;;28.08;;
25437;SDS011;13364;49.084;9.978;2023-01-25T00:38:23;76.80;;;30.00;;
25437;SDS011;13364;49.084;9.978;2023-01-25T00:40:56;69.22;;;27.83;;
25437;SDS011;13364;49.084;9.978;2023-01-25T00:43:24;55.92;;;20.35;;
25437;SDS011;13364;49.084;9.978;2023-01-25T00:45:51;66.88;;;24.25;;
25437;SDS011;13364;49.084;9.978;2023-01-25T00:48:25;76.00;;;25.13;;
25437;SDS011;13364;49.084;9.978;2023-01-25T00:50:52;61.13;;;23.65;;
25437;SDS011;13364;49.084;9.978;2023-01-25T00:53:19;72.35;;;24.67;;
25437;SDS011;13364;49.084;9.978;2023-01-25T00:55:52;64.35;;;23.75;;
25437;SDS011;13364;49.084;9.978;2023-01-25T00:58:19;57.35;;;21.77;;
25437;SDS011;13364;49.084;9.978;2023-01-25T01:00:46;53.55;;;20.77;;
25437;SDS011;13364;49.084;9.978;2023-01-25T01:03:14;52.55;;;20.77;;
25437;SDS011;13364;49.084;9.978;2023-01-25T01:05:44;55.80;;;21.63;;
25437;SDS011;13364;49.084;9.978;2023-01-25T01:08:14;49.65;;;20.80;;
25437;SDS011;13364;49.084;9.978;2023-01-25T01:10:41;60.65;;;21.00;;
25437;SDS011;13364;49.084;9.978;2023-01-25T01:13:09;47.38;;;19.52;;
25437;SDS011;13364;49.084;9.978;2023-01-25T01:15:36;47.90;;;20.05;;
25437;SDS011;13364;49.084;9.978;2023-01-25T01:18:03;48.35;;;20.38;;
25437;SDS011;13364;49.084;9.978;2023-01-25T01:20:30;46.78;;;18.85;;
25437;SDS011;13364;49.084;9.978;2023-01-25T01:22:57;42.95;;;18.65;;
25437;SDS011;13364;49.084;9.978;2023-01-25T01:25:24;40.53;;;17.27;;
25437;SDS011;13364;49.084;9.978;2023-01-25T01:27:51;48.53;;;18.27;;
25437;SDS011;13364;49.084;9.978;2023-01-25T01:30:18;45.97;;;17.77;;
25437;SDS011;13364;49.084;9.978;2023-01-25T01:32:45;37.60;;;17.08;;
25437;SDS011;13364;49.084;9.978;2023-01-25T01:35:13;46.03;;;17.98;;
25437;SDS011;13364;49.084;9.978;2023-01-25T01:37:40;38.17;;;16.98;;
25437;SDS011;13364;49.084;9.978;2023-01-25T01:40:08;50.70;;;20.15;;
25437;SDS011;13364;49.084;9.978;2023-01-25T01:45:42;52.22;;;20.20;;
25437;SDS011;13364;49.084;9.978;2023-01-25T01:54:14;52.08;;;19.65;;
25437;SDS011;13364;49.084;9.978;2023-01-25T01:57:06;51.40;;;19.15;;
25437;SDS011;13364;49.084;9.978;2023-01-25T01:59:40;49.88;;;18.90;;
25437;SDS011;13364;49.084;9.978;2023-01-25T02:02:09;55.35;;;20.13;;
25437;SDS011;13364;49.084;9.978;2023-01-25T02:04:36;54.95;;;20.05;;
25437;SDS011;13364;49.084;9.978;2023-01-25T02:07:10;50.78;;;18.45;;
25437;SDS011;13364;49.084;9.978;2023-01-25T02:09:45;47.78;;;18.73;;
25437;SDS011;13364;49.084;9.978;2023-01-25T02:12:13;51.42;;;17.70;;
25437;SDS011;13364;49.084;9.978;2023-01-25T02:14:43;46.05;;;18.17;;
25437;SDS011;13364;49.084;9.978;2023-01-25T02:17:35;46.13;;;18.58;;
25437;SDS011;13364;49.084;9.978;2023-01-25T02:22:58;50.28;;;18.15;;
25437;SDS011;13364;49.084;9.978;2023-01-25T02:25:33;50.75;;;18.33;;
25437;SDS011;13364;49.084;9.978;2023-01-25T02:28:02;46.80;;;18.77;;
25437;SDS011;13364;49.084;9.978;2023-01-25T02:30:43;40.13;;;17.48;;
25437;SDS011;13364;49.084;9.978;2023-01-25T02:33:11;38.03;;;17.08;;
25437;SDS011;13364;49.084;9.978;2023-01-25T02:38:08;46.55;;;17.95;;
25437;SDS011;13364;49.084;9.978;2023-01-25T02:40:41;34.70;;;15.80;;
25437;SDS011;13364;49.084;9.978;2023-01-25T02:43:16;47.58;;;16.95;;
25437;SDS011;13364;49.084;9.978;2023-01-25T02:45:48;48.75;;;18.92;;
25437;SDS011;13364;49.084;9.978;2023-01-25T02:48:20;38.47;;;15.15;;
25437;SDS011;13364;49.084;9.978;2023-01-25T02:50:48;40.92;;;15.85;;
25437;SDS011;13364;49.084;9.978;2023-01-25T02:53:15;40.95;;;16.50;;
25437;SDS011;13364;49.084;9.978;2023-01-25T02:55:58;37.72;;;16.42;;
25437;SDS011;13364;49.084;9.978;2023-01-25T02:58:25;35.75;;;15.85;;
25437;SDS011;13364;49.084;9.978;2023-01-25T03:00:52;36.25;;;15.77;;
25437;SDS011;13364;49.084;9.978;2023-01-25T03:03:20;41.53;;;17.10;;
25437;SDS011;13364;49.084;9.978;2023-01-25T03:05:47;38.05;;;15.77;;
25437;SDS011;13364;49.084;9.978;2023-01-25T03:08:14;38.08;;;15.38;;
25437;SDS011;13364;49.084;9.978;2023-01-25T03:10:41;41.47;;;16.25;;
25437;SDS011;13364;49.084;9.978;2023-01-25T03:13:08;37.08;;;16.13;;
25437;SDS011;13364;49.084;9.978;2023-01-25T03:15:36;34.60;;;15.60;;
25437;SDS011;13364;49.084;9.978;2023-01-25T03:18:03;36.65;;;15.93;;
25437;SDS011;13364;49.084;9.978;2023-01-25T03:20:31;43.28;;;16.38;;
25437;SDS011;13364;49.084;9.978;2023-01-25T03:22:58;35.25;;;15.82;;
25437;SDS011;13364;49.084;9.978;2023-01-25T03:25:26;42.22;;;15.63;;
25437;SDS011;13364;49.084;9.978;2023-01-25T03:27:59;43.67;;;16.73;;
25437;SDS011;13364;49.084;9.978;2023-01-25T03:30:26;45.72;;;16.65;;
25437;SDS011;13364;49.084;9.978;2023-01-25T03:32:53;40.78;;;15.40;;
25437;SDS011;13364;49.084;9.978;2023-01-25T03:35:21;42.22;;;17.60;;
25437;SDS011;13364;49.084;9.978;2023-01-25T03:37:50;42.60;;;17.02;;
25437;SDS011;13364;49.084;9.978;2023-01-25T03:40:17;36.90;;;15.90;;
25437;SDS011;13364;49.084;9.978;2023-01-25T03:42:48;45.15;;;16.67;;
25437;SDS011;13364;49.084;9.978;2023-01-25T03:45:15;34.05;;;14.88;;
25437;SDS011;13364;49.084;9.978;2023-01-25T03:47:42;33.33;;;14.48;;
25437;SDS011;13364;49.084;9.978;2023-01-25T03:50:10;28.65;;;14.00;;
25437;SDS011;13364;49.084;9.978;2023-01-25T03:52:38;31.27;;;13.63;;
25437;SDS011;13364;49.084;9.978;2023-01-25T03:55:07;32.92;;;15.60;;
25437;SDS011;13364;49.084;9.978;2023-01-25T03:57:39;35.80;;;14.80;;
25437;SDS011;13364;49.084;9.978;2023-01-25T04:00:07;32.30;;;13.55;;
25437;SDS011;13364;49.084;9.978;2023-01-25T04:02:45;37.58;;;14.75;;
25437;SDS011;13364;49.084;9.978;2023-01-25T04:05:16;32.92;;;14.68;;
25437;SDS011;13364;49.084;9.978;2023-01-25T04:07:43;36.63;;;15.18;;
25437;SDS011;13364;49.084;9.978;2023-01-25T04:10:11;34.65;;;14.80;;
25437;SDS011;13364;49.084;9.978;2023-01-25T04:12:42;36.38;;;14.80;;
25437;SDS011;13364;49.084;9.978;2023-01-25T04:15:09;37.58;;;15.15;;
25437;SDS011;13364;49.084;9.978;2023-01-25T04:17:38;40.80;;;17.05;;
25437;SDS011;13364;49.084;9.978;2023-01-25T04:20:13;36.60;;;15.65;;
25437;SDS011;13364;49.084;9.978;2023-01-25T04:22:42;38.70;;;16.40;;
25437;SDS011;13364;49.084;9.978;2023-01-25T04:25:09;29.15;;;14.07;;
25437;SDS011;13364;49.084;9.978;2023-01-25T04:27:42;27.05;;;13.23;;
25437;SDS011;13364;49.084;9.978;2023-01-25T04:30:13;26.73;;;12.65;;
25437;SDS011;13364;49.084;9.978;2023-01-25T04:32:42;28.23;;;13.45;;
25437;SDS011;13364;49.084;9.978;2023-01-25T04:35:29;27.25;;;13.70;;
25437;SDS011;13364;49.084;9.978;2023-01-25T04:37:58;29.67;;;13.55;;
25437;SDS011;13364;49.084;9.978;2023-01-25T04:40:32;31.98;;;13.68;;
25437;SDS011;13364;49.084;9.978;2023-01-25T04:42:59;29.65;;;14.05;;
25437;SDS011;13364;49.084;9.978;2023-01-25T04:48:14;26.88;;;14.05;;
25437;SDS011;13364;49.084;9.978;2023-01-25T04:50:48;25.15;;;13.00;;
25437;SDS011;13364;49.084;9.978;2023-01-25T04:53:19;25.95;;;13.23;;
25437;SDS011;13364;49.084;9.978;2023-01-25T04:55:46;26.02;;;12.07;;
25437;SDS011;13364;49.084;9.978;2023-01-25T04:58:14;23.27;;;12.00;;
25437;SDS011;13364;49.084;9.978;2023-01-25T05:00:42;28.92;;;12.65;;
25437;SDS011;13364;49.084;9.978;2023-01-25T05:03:10;25.55;;;12.82;;
25437;SDS011;13364;49.084;9.978;2023-01-25T05:05:37;23.35;;;12.32;;
25437;SDS011;13364;49.084;9.978;2023-01-25T05:08:09;20.20;;;11.48;;
25437;SDS011;13364;49.084;9.978;2023-01-25T05:10:36;26.38;;;13.43;;
25437;SDS011;13364;49.084;9.978;2023-01-25T05:13:22;27.48;;;13.05;;
25437;SDS011;13364;49.084;9.978;2023-01-25T05:15:56;25.17;;;12.40;;
25437;SDS011;13364;49.084;9.978;2023-01-25T05:18:23;22.60;;;12.85;;
25437;SDS011;13364;49.084;9.978;2023-01-25T05:20:56;22.20;;;12.27;;
25437;SDS011;13364;49.084;9.978;2023-01-25T05:23:24;20.67;;;11.83;;
25437;SDS011;13364;49.084;9.978;2023-01-25T05:25:52;23.50;;;11.68;;
25437;SDS011;13364;49.084;9.978;2023-01-25T05:28:39;23.88;;;12.18;;
25437;SDS011;13364;49.084;9.978;2023-01-25T05:31:28;21.58;;;11.48;;
25437;SDS011;13364;49.084;9.978;2023-01-25T05:33:56;22.20;;;12.50;;
25437;SDS011;13364;49.084;9.978;2023-01-25T05:36:23;20.33;;;10.90;;
25437;SDS011;13364;49.084;9.978;2023-01-25T05:38:55;18.38;;;10.77;;
25437;SDS011;13364;49.084;9.978;2023-01-25T05:41:23;22.67;;;10.98;;
25437;SDS011;13364;49.084;9.978;2023-01-25T05:43:51;18.30;;;11.15;;
25437;SDS011;13364;49.084;9.978;2023-01-25T05:46:18;24.05;;;12.18;;
25437;SDS011;13364;49.084;9.978;2023-01-25T05:48:46;21.98;;;12.55;;
25437;SDS011;13364;49.084;9.978;2023-01-25T05:51:13;25.23;;;13.57;;
25437;SDS011;13364;49.084;9.978;2023-01-25T05:53:41;20.60;;;11.77;;
25437;SDS011;13364;49.084;9.978;2023-01-25T05:56:08;22.42;;;12.45;;
25437;SDS011;13364;49.084;9.978;2023-01-25T05:58:36;24.70;;;12.02;;
25437;SDS011;13364;49.084;9.978;2023-01-25T06:01:05;22.45;;;13.20;;
25437;SDS011;13364;49.084;9.978;2023-01-25T06:03:44;23.20;;;13.02;;
25437;SDS011;13364;49.084;9.978;2023-01-25T06:06:12;29.40;;;13.95;;
25437;SDS011;13364;49.084;9.978;2023-01-25T06:08:40;24.77;;;12.70;;
25437;SDS011;13364;49.084;9.978;2023-01-25T06:13:50;23.23;;;12.23;;
25437;SDS011;13364;49.084;9.978;2023-01-25T06:16:19;23.85;;;12.43;;
25437;SDS011;13364;49.084;9.978;2023-01-25T06:18:52;25.42;;;11.85;;
25437;SDS011;13364;49.084;9.978;2023-01-25T06:21:30;24.13;;;12.95;;
25437;SDS011;13364;49.084;9.978;2023-01-25T06:23:58;22.98;;;13.57;;
25437;SDS011;13364;49.084;9.978;2023-01-25T06:26:25;25.65;;;12.45;;
25437;SDS011;13364;49.084;9.978;2023-01-25T06:28:52;24.48;;;13.07;;
25437;SDS011;13364;49.084;9.978;2023-01-25T06:31:19;24.13;;;12.20;;
25437;SDS011;13364;49.084;9.978;2023-01-25T06:33:47;24.10;;;12.48;;
25437;SDS011;13364;49.084;9.978;2023-01-25T06:36:18;25.83;;;13.02;;
25437;SDS011;13364;49.084;9.978;2023-01-25T06:38:47;26.85;;;12.90;;
25437;SDS011;13364;49.084;9.978;2023-01-25T06:41:18;25.92;;;13.45;;
25437;SDS011;13364;49.084;9.978;2023-01-25T06:43:46;28.58;;;13.05;;
25437;SDS011;13364;49.084;9.978;2023-01-25T06:46:16;24.75;;;12.10;;
25437;SDS011;13364;49.084;9.978;2023-01-25T06:48:43;26.25;;;12.70;;
25437;SDS011;13364;49.084;9.978;2023-01-25T06:51:11;32.47;;;17.25;;
25437;SDS011;13364;49.084;9.978;2023-01-25T06:53:40;27.13;;;15.43;;
25437;SDS011;13364;49.084;9.978;2023-01-25T06:56:10;24.50;;;13.15;;
25437;SDS011;13364;49.084;9.978;2023-01-25T06:58:43;21.50;;;11.85;;
25437;SDS011;13364;49.084;9.978;2023-01-25T07:01:12;24.33;;;12.20;;
25437;SDS011;13364;49.084;9.978;2023-01-25T07:03:42;22.30;;;11.35;;
25437;SDS011;13364;49.084;9.978;2023-01-25T07:06:09;20.45;;;10.77;;
25437;SDS011;13364;49.084;9.978;2023-01-25T07:08:37;24.20;;;11.40;;
25437;SDS011;13364;49.084;9.978;2023-01-25T07:11:05;27.42;;;13.43;;
25437;SDS011;13364;49.084;9.978;2023-01-25T07:13:35;29.85;;;15.25;;
25437;SDS011;13364;49.084;9.978;2023-01-25T07:16:04;23.73;;;12.85;;
25437;SDS011;13364;49.084;9.978;2023-01-25T07:18:33;22.77;;;12.82;;
25437;SDS011;13364;49.084;9.978;2023-01-25T07:21:07;21.33;;;11.65;;
25437;SDS011;13364;49.084;9.978;2023-01-25T07:23:36;24.20;;;12.68;;
25437;SDS011;13364;49.084;9.978;2023-01-25T07:26:14;20.27;;;11.23;;
25437;SDS011;13364;49.084;9.978;2023-01-25T07:28:43;23.35;;;11.98;;
25437;SDS011;13364;49.084;9.978;2023-01-25T07:31:11;23.50;;;12.35;;
25437;SDS011;13364;49.084;9.978;2023-01-25T07:33:40;23.33;;;12.80;;
25437;SDS011;13364;49.084;9.978;2023-01-25T07:36:08;24.88;;;12.30;;
25437;SDS011;13364;49.084;9.978;2023-01-25T07:38:36;24.13;;;12.05;;
25437;SDS011;13364;49.084;9.978;2023-01-25T07:41:03;25.08;;;11.95;;
25437;SDS011;13364;49.084;9.978;2023-01-25T07:43:30;20.92;;;10.93;;
25437;SDS011;13364;49.084;9.978;2023-01-25T07:46:04;26.20;;;11.77;;
25437;SDS011;13364;49.084;9.978;2023-01-25T07:48:32;23.30;;;12.40;;
25437;SDS011;13364;49.084;9.978;2023-01-25T07:51:00;25.20;;;12.05;;
25437;SDS011;13364;49.084;9.978;2023-01-25T07:53:41;25.63;;;12.52;;
25437;SDS011;13364;49.084;9.978;2023-01-25T07:56:09;21.27;;;11.15;;
25437;SDS011;13364;49.084;9.978;2023-01-25T07:58:38;25.00;;;12.63;;
25437;SDS011;13364;49.084;9.978;2023-01-25T08:01:06;28.48;;;13.13;;
25437;SDS011;13364;49.084;9.978;2023-01-25T08:03:33;26.73;;;12.93;;
25437;SDS011;13364;49.084;9.978;2023-01-25T08:06:01;27.10;;;12.93;;
25437;SDS011;13364;49.084;9.978;2023-01-25T08:08:35;29.35;;;14.13;;
25437;SDS011;13364;49.084;9.978;2023-01-25T08:11:08;26.83;;;13.95;;
25437;SDS011;13364;49.084;9.978;2023-01-25T08:13:39;27.95;;;13.48;;
25437;SDS011;13364;49.084;9.978;2023-01-25T08:16:07;28.98;;;13.63;;
25437;SDS011;13364;49.084;9.978;2023-01-25T08:18:35;29.73;;;13.35;;
25437;SDS011;13364;49.084;9.978;2023-01-25T08:21:02;29.88;;;14.73;;
25437;SDS011;13364;49.084;9.978;2023-01-25T08:23:29;33.80;;;15.82;;
25437;SDS011;13364;49.084;9.978;2023-01-25T08:26:02;29.33;;;14.10;;
25437;SDS011;13364;49.084;9.978;2023-01-25T08:28:34;29.38;;;12.52;;
25437;SDS011;13364;49.084;9.978;2023-01-25T08:31:09;22.98;;;12.00;;
25437;SDS011;13364;49.084;9.978;2023-01-25T08:33:41;32.00;;;12.80;;
25437;SDS011;13364;49.084;9.978;2023-01-25T08:36:12;31.67;;;13.80;;
25437;SDS011;13364;49.084;9.978;2023-01-25T08:38:40;28.02;;;13.43;;
25437;SDS011;13364;49.084;9.978;2023-01-25T08:41:17;29.92;;;14.20;;
25437;SDS011;13364;49.084;9.978;2023-01-25T08:43:47;26.10;;;13.38;;
25437;SDS011;13364;49.084;9.978;2023-01-25T08:46:15;27.67;;;13.27;;
25437;SDS011;13364;49.084;9.978;2023-01-25T08:48:42;27.75;;;12.75;;
25437;SDS011;13364;49.084;9.978;2023-01-25T08:51:10;30.20;;;13.27;;
25437;SDS011;13364;49.084;9.978;2023-01-25T08:53:39;27.80;;;13.50;;
25437;SDS011;13364;49.084;9.978;2023-01-25T08:56:07;26.05;;;13.38;;
25437;SDS011;13364;49.084;9.978;2023-01-25T08:58:37;31.40;;;13.80;;
25437;SDS011;13364;49.084;9.978;2023-01-25T09:01:07;42.10;;;20.45;;
25437;SDS011;13364;49.084;9.978;2023-01-25T09:03:37;48.58;;;24.60;;
25437;SDS011;13364;49.084;9.978;2023-01-25T09:06:10;32.75;;;16.55;;
25437;SDS011;13364;49.084;9.978;2023-01-25T09:08:37;32.17;;;14.57;;
25437;SDS011;13364;49.084;9.978;2023-01-25T09:11:08;35.03;;;16.65;;
25437;SDS011;13364;49.084;9.978;2023-01-25T09:13:39;52.97;;;25.63;;
25437;SDS011;13364;49.084;9.978;2023-01-25T09:16:13;43.40;;;23.25;;
25437;SDS011;13364;49.084;9.978;2023-01-25T09:18:46;33.83;;;15.60;;
25437;SDS011;13364;49.084;9.978;2023-01-25T09:21:16;34.67;;;15.65;;
25437;SDS011;13364;49.084;9.978;2023-01-25T09:23:46;35.00;;;16.45;;
25437;SDS011;13364;49.084;9.978;2023-01-25T09:26:29;45.63;;;22.08;;
25437;SDS011;13364;49.084;9.978;2023-01-25T09:28:57;35.78;;;16.83;;
25437;SDS011;13364;49.084;9.978;2023-01-25T09:31:24;27.98;;;15.45;;
25437;SDS011;13364;49.084;9.978;2023-01-25T09:33:57;27.70;;;14.05;;
25437;SDS011;13364;49.084;9.978;2023-01-25T09:36:24;26.55;;;13.10;;
25437;SDS011;13364;49.084;9.978;2023-01-25T09:38:52;29.55;;;14.32;;
25437;SDS011;13364;49.084;9.978;2023-01-25T09:44:44;27.15;;;13.23;;
25437;SDS011;13364;49.084;9.978;2023-01-25T09:47:26;26.52;;;13.00;;
25437;SDS011;13364;49.084;9.978;2023-01-25T09:55:53;30.08;;;13.10;;
25437;SDS011;13364;49.084;9.978;2023-01-25T09:58:34;32.38;;;14.00;;
25437;SDS011;13364;49.084;9.978;2023-01-25T10:04:12;27.92;;;13.52;;
25437;SDS011;13364;49.084;9.978;2023-01-25T10:06:51;25.42;;;13.82;;
25437;SDS011;13364;49.084;9.978;2023-01-25T10:09:30;32.28;;;17.70;;
25437;SDS011;13364;49.084;9.978;2023-01-25T10:12:11;34.92;;;18.65;;
25437;SDS011;13364;49.084;9.978;2023-01-25T10:14:50;28.67;;;13.70;;
25437;SDS011;13364;49.084;9.978;2023-01-25T10:17:30;27.73;;;12.73;;
25437;SDS011;13364;49.084;9.978;2023-01-25T10:23:24;30.08;;;14.27;;
25437;SDS011;13364;49.084;9.978;2023-01-25T10:25:34;27.27;;;12.68;;
25437;SDS011;13364;49.084;9.978;2023-01-25T10:28:15;31.65;;;15.88;;
25437;SDS011;13364;49.084;9.978;2023-01-25T10:30:47;30.58;;;14.25;;
25437;SDS011;13364;49.084;9.978;2023-01-25T10:33:20;30.77;;;14.48;;
25437;SDS011;13364;49.084;9.978;2023-01-25T10:35:48;32.63;;;13.40;;
25437;SDS011;13364;49.084;9.978;2023-01-25T10:38:24;30.30;;;13.57;;
25437;SDS011;13364;49.084;9.978;2023-01-25T10:41:04;27.02;;;12.50;;
25437;SDS011;13364;49.084;9.978;2023-01-25T10:43:37;30.85;;;13.77;;
25437;SDS011;13364;49.084;9.978;2023-01-25T10:46:38;29.30;;;12.45;;
25437;SDS011;13364;49.084;9.978;2023-01-25T10:49:00;26.88;;;13.02;;
25437;SDS011;13364;49.084;9.978;2023-01-25T10:51:39;26.48;;;12.68;;
25437;SDS011;13364;49.084;9.978;2023-01-25T10:54:12;25.08;;;12.35;;
25437;SDS011;13364;49.084;9.978;2023-01-25T10:56:41;27.35;;;13.57;;
25437;SDS011;13364;49.084;9.978;2023-01-25T11:01:46;27.95;;;13.55;;
25437;SDS011;13364;49.084;9.978;2023-01-25T11:04:22;29.10;;;13.85;;
25437;SDS011;13364;49.084;9.978;2023-01-25T11:06:57;25.75;;;13.25;;
25437;SDS011;13364;49.084;9.978;2023-01-25T11:09:29;29.52;;;13.10;;
25437;SDS011;13364;49.084;9.978;2023-01-25T11:14:32;26.33;;;13.45;;
25437;SDS011;13364;49.084;9.978;2023-01-25T11:17:01;27.30;;;13.70;;
25437;SDS011;13364;49.084;9.978;2023-01-25T11:19:31;27.20;;;13.32;;
25437;SDS011;13364;49.084;9.978;2023-01-25T11:22:02;26.65;;;13.32;;
25437;SDS011;13364;49.084;9.978;2023-01-25T11:24:47;28.00;;;14.15;;
25437;SDS011;13364;49.084;9.978;2023-01-25T11:27:21;27.02;;;13.13;;
25437;SDS011;13364;49.084;9.978;2023-01-25T11:32:38;23.83;;;13.13;;
25437;SDS011;13364;49.084;9.978;2023-01-25T11:35:16;28.95;;;13.50;;
25437;SDS011;13364;49.084;9.978;2023-01-25T11:38:02;30.02;;;13.90;;
25437;SDS011;13364;49.084;9.978;2023-01-25T11:40:54;27.92;;;13.50;;
25437;SDS011;13364;49.084;9.978;2023-01-25T11:46:29;30.75;;;12.70;;
25437;SDS011;13364;49.084;9.978;2023-01-25T11:57:11;27.85;;;13.23;;
25437;SDS011;13364;49.084;9.978;2023-01-25T12:08:06;23.92;;;12.90;;
25437;SDS011;13364;49.084;9.978;2023-01-25T12:13:28;30.20;;;12.85;;
25437;SDS011;13364;49.084;9.978;2023-01-25T12:26:59;27.00;;;12.98;;
25437;SDS011;13364;49.084;9.978;2023-01-25T12:29:46;25.27;;;12.82;;
25437;SDS011;13364;49.084;9.978;2023-01-25T12:32:30;27.15;;;13.63;;
25437;SDS011;13364;49.084;9.978;2023-01-25T12:47:12;35.00;;;14.75;;
25437;SDS011;13364;49.084;9.978;2023-01-25T12:52:23;29.52;;;13.55;;
25437;SDS011;13364;49.084;9.978;2023-01-25T12:55:06;27.30;;;14.52;;
25437;SDS011;13364;49.084;9.978;2023-01-25T12:57:42;31.05;;;14.52;;
25437;SDS011;13364;49.084;9.978;2023-01-25T13:20:51;36.80;;;15.85;;
25437;SDS011;13364;49.084;9.978;2023-01-25T13:24:06;33.03;;;16.48;;
25437;SDS011;13364;49.084;9.978;2023-01-25T13:28:50;35.67;;;14.77;;
25437;SDS011;13364;49.084;9.978;2023-01-25T13:39:44;33.63;;;14.38;;
25437;SDS011;13364;49.084;9.978;2023-01-25T13:45:03;32.60;;;14.52;;
25437;SDS011;13364;49.084;9.978;2023-01-25T13:47:44;30.65;;;15.68;;
25437;SDS011;13364;49.084;9.978;2023-01-25T13:50:43;35.58;;;15.40;;
25437;SDS011;13364;49.084;9.978;2023-01-25T13:55:42;35.63;;;15.90;;
25437;SDS011;13364;49.084;9.978;2023-01-25T14:00:54;37.97;;;16.17;;
25437;SDS011;13364;49.084;9.978;2023-01-25T14:09:02;30.25;;;15.65;;
25437;SDS011;13364;49.084;9.978;2023-01-25T14:11:34;33.50;;;14.85;;
25437;SDS011;13364;49.084;9.978;2023-01-25T14:14:25;30.55;;;15.07;;
25437;SDS011;13364;49.084;9.978;2023-01-25T14:17:04;35.65;;;15.48;;
25437;SDS011;13364;49.084;9.978;2023-01-25T14:19:48;35.17;;;15.93;;
25437;SDS011;13364;49.084;9.978;2023-01-25T14:22:28;30.23;;;14.10;;
25437;SDS011;13364;49.084;9.978;2023-01-25T14:25:12;35.83;;;16.23;;
25437;SDS011;13364;49.084;9.978;2023-01-25T14:32:48;30.15;;;14.35;;
25437;SDS011;13364;49.084;9.978;2023-01-25T14:41:06;35.17;;;16.60;;
25437;SDS011;13364;49.084;9.978;2023-01-25T14:43:37;38.13;;;17.95;;
25437;SDS011;13364;49.084;9.978;2023-01-25T14:46:18;35.55;;;15.77;;
25437;SDS011;13364;49.084;9.978;2023-01-25T14:49:37;38.83;;;16.20;;
25437;SDS011;13364;49.084;9.978;2023-01-25T14:51:56;34.47;;;16.88;;
25437;SDS011;13364;49.084;9.978;2023-01-25T14:54:26;33.13;;;16.23;;
25437;SDS011;13364;49.084;9.978;2023-01-25T14:56:56;33.97;;;16.98;;
25437;SDS011;13364;49.084;9.978;2023-01-25T15:02:37;43.70;;;20.08;;
25437;SDS011;13364;49.084;9.978;2023-01-25T15:05:23;49.25;;;24.17;;
25437;SDS011;13364;49.084;9.978;2023-01-25T15:10:35;41.88;;;20.63;;
25437;SDS011;13364;49.084;9.978;2023-01-25T15:21:14;48.63;;;28.23;;
25437;SDS011;13364;49.084;9.978;2023-01-25T15:23:46;59.08;;;31.35;;
25437;SDS011;13364;49.084;9.978;2023-01-25T15:26:19;53.88;;;32.45;;
25437;SDS011;13364;49.084;9.978;2023-01-25T15:28:46;54.22;;;25.45;;
25437;SDS011;13364;49.084;9.978;2023-01-25T15:31:15;49.92;;;25.70;;
25437;SDS011;13364;49.084;9.978;2023-01-25T15:33:48;44.50;;;22.75;;
25437;SDS011;13364;49.084;9.978;2023-01-25T15:36:15;37.08;;;18.05;;
25437;SDS011;13364;49.084;9.978;2023-01-25T15:38:44;70.47;;;33.80;;
25437;SDS011;13364;49.084;9.978;2023-01-25T15:41:12;51.15;;;24.35;;
25437;SDS011;13364;49.084;9.978;2023-01-25T15:43:39;38.83;;;17.95;;
25437;SDS011;13364;49.084;9.978;2023-01-25T15:46:10;33.33;;;15.63;;
25437;SDS011;13364;49.084;9.978;2023-01-25T15:48:44;33.50;;;14.40;;
25437;SDS011;13364;49.084;9.978;2023-01-25T15:51:13;32.05;;;14.10;;
25437;SDS011;13364;49.084;9.978;2023-01-25T15:53:40;30.63;;;14.73;;
25437;SDS011;13364;49.084;9.978;2023-01-25T15:56:29;34.30;;;14.90;;
25437;SDS011;13364;49.084;9.978;2023-01-25T15:58:59;33.33;;;14.98;;
25437;SDS011;13364;49.084;9.978;2023-01-25T16:01:35;26.92;;;12.63;;
25437;SDS011;13364;49.084;9.978;2023-01-25T16:04:02;28.38;;;14.32;;
25437;SDS011;13364;49.084;9.978;2023-01-25T16:06:37;32.65;;;13.32;;
25437;SDS011;13364;49.084;9.978;2023-01-25T16:09:12;30.00;;;14.02;;
25437;SDS011;13364;49.084;9.978;2023-01-25T16:11:41;30.38;;;13.90;;
25437;SDS011;13364;49.084;9.978;2023-01-25T16:14:09;37.38;;;14.85;;
25437;SDS011;13364;49.084;9.978;2023-01-25T16:16:38;33.60;;;14.63;;
25437;SDS011;13364;49.084;9.978;2023-01-25T16:19:12;36.17;;;15.18;;
25437;SDS011;13364;49.084;9.978;2023-01-25T16:21:41;43.45;;;15.23;;
25437;SDS011;13364;49.084;9.978;2023-01-25T16:24:09;37.65;;;16.83;;
25437;SDS011;13364;49.084;9.978;2023-01-25T16:26:38;38.77;;;17.03;;
25437;SDS011;13364;49.084;9.978;2023-01-25T16:29:09;39.10;;;17.42;;
25437;SDS011;13364;49.084;9.978;2023-01-25T16:31:37;45.87;;;15.70;;
25437;SDS011;13364;49.084;9.978;2023-01-25T16:34:04;46.45;;;18.73;;
25437;SDS011;13364;49.084;9.978;2023-01-25T16:36:31;37.10;;;16.85;;
25437;SDS011;13364;49.084;9.978;2023-01-25T16:41:35;42.97;;;17.08;;
25437;SDS011;13364;49.084;9.978;2023-01-25T16:44:03;38.75;;;16.75;;
25437;SDS011;13364;49.084;9.978;2023-01-25T16:46:30;44.75;;;17.98;;
25437;SDS011;13364;49.084;9.978;2023-01-25T16:48:57;47.42;;;18.02;;
25437;SDS011;13364;49.084;9.978;2023-01-25T16:51:30;37.08;;;17.40;;
25437;SDS011;13364;49.084;9.978;2023-01-25T16:53:58;42.70;;;19.05;;
25437;SDS011;13364;49.084;9.978;2023-01-25T16:56:28;39.15;;;17.77;;
25437;SDS011;13364;49.084;9.978;2023-01-25T16:58:58;48.97;;;19.02;;
25437;SDS011;13364;49.084;9.978;2023-01-25T17:01:27;46.45;;;19.70;;
25437;SDS011;13364;49.084;9.978;2023-01-25T17:03:54;47.22;;;20.40;;
25437;SDS011;13364;49.084;9.978;2023-01-25T17:06:31;46.97;;;18.00;;
25437;SDS011;13364;49.084;9.978;2023-01-25T17:09:01;42.80;;;17.90;;
25437;SDS011;13364;49.084;9.978;2023-01-25T17:11:47;44.75;;;18.13;;
25437;SDS011;13364;49.084;9.978;2023-01-25T17:14:16;45.65;;;17.73;;
25437;SDS011;13364;49.084;9.978;2023-01-25T17:16:44;46.25;;;18.23;;
25437;SDS011;13364;49.084;9.978;2023-01-25T17:19:14;42.65;;;16.40;;
25437;SDS011;13364;49.084;9.978;2023-01-25T17:21:42;41.53;;;15.93;;
25437;SDS011;13364;49.084;9.978;2023-01-25T17:24:14;44.13;;;18.45;;
25437;SDS011;13364;49.084;9.978;2023-01-25T17:26:44;47.40;;;18.83;;
25437;SDS011;13364;49.084;9.978;2023-01-25T17:29:11;52.78;;;20.42;;
25437;SDS011;13364;49.084;9.978;2023-01-25T17:31:39;52.15;;;20.98;;